Currently 75°F in Anza, California, USA
75°F
77°F / 54°F
13 mph W
0.00"
Saturday, May 18, 2024 3:53 PM PDT

Anza, California Weather Summary
Last 36 Hours

Temperature Winds Hourly Humidity Dewpoint
Time Report Norm Report Norm Max Gusts Precip. Rpt. Norm Rpt. Norm Pressure
1Sat 03:53 PM  74.6°F  71°F  13 mph W  10 mph  24 mph  0.00"  22%  43%  32°F  47°F  29.87"
Sat 03:00 PM  75.6°F  72°F  15 mph NW  10 mph  27 mph  0.00"  17%  41%  26°F  46°F  29.88"
Sat 02:00 PM  76.1°F  72°F  15 mph NW  10 mph  26 mph  0.00"  16%  41%  25°F  46°F  29.89"
Sat 01:00 PM  76.4°F  72°F  16 mph NW  10 mph  26 mph  0.00"  19%  40%  29°F  45°F  29.90"
2Sat 12:44 PM  76.9°F  71°F  14 mph W  9 mph  25 mph  ----  17%  40%  27°F  45°F  29.90"
Sat 12:00 PM  75.9°F  71°F  12 mph NW  9 mph  24 mph  0.00"  14%  41%  22°F  45°F  29.91"
Sat 11:00 AM  74.8°F  69°F  15 mph NW  8 mph  21 mph  0.00"  18%  43%  26°F  45°F  29.91"
Sat 10:00 AM  73.2°F  67°F  13 mph NW  8 mph  19 mph  0.00"  22%  47%  30°F  45°F  29.90"
Sat 09:00 AM  70.7°F  64°F  12 mph NW  7 mph  19 mph  0.00"  20%  53%  26°F  46°F  29.89"
Sat 08:00 AM  65.1°F  59°F  6 mph N  6 mph  15 mph  0.00"  33%  64%  34°F  46°F  29.90"
Sat 07:00 AM  58.7°F  53°F  9 mph N  5 mph  13 mph  0.00"  44%  76%  36°F  45°F  29.89"
Sat 06:50 AM  56.9°F  52°F  8 mph W  4 mph  10 mph  0.00"  45%  77%  35°F  45°F  29.89"
3Sat 12:34 AM  54.0°F  51°F  7 mph NW  5 mph  9 mph  ----  67%  80%  43°F  45°F  29.86"
Sat 12:00 AM  54.4°F  52°F  8 mph W  5 mph  11 mph  0.00"  70%  80%  45°F  45°F  29.86"
Fri 11:00 PM  53.5°F  53°F  7 mph W  5 mph  13 mph  0.00"  88%  79%  50°F  46°F  29.87"
Fri 10:00 PM  55.4°F  54°F  8 mph NW  5 mph  15 mph  0.00"  84%  76%  51°F  46°F  29.85"
Fri 09:00 PM  56.1°F  56°F  8 mph NW  6 mph  12 mph  0.00"  75%  72%  48°F  47°F  29.85"
Fri 08:00 PM  60.5°F  59°F  8 mph NW  6 mph  15 mph  0.00"  66%  67%  49°F  47°F  29.82"
Fri 07:00 PM  68.3°F  64°F  12 mph NW  9 mph  18 mph  0.00"  41%  57%  43°F  48°F  29.80"
Fri 06:00 PM  73.3°F  68°F  12 mph NW  10 mph  20 mph  0.00"  31%  50%  39°F  48°F  29.80"
Fri 05:00 PM  75.7°F  70°F  14 mph NW  10 mph  20 mph  0.00"  27%  45%  38°F  47°F  29.81"
Fri 04:00 PM  76.3°F  72°F  13 mph NW  10 mph  22 mph  0.00"  28%  42%  40°F  46°F  29.82"
Fri 03:00 PM  78.3°F  72°F  14 mph NW  10 mph  23 mph  0.00"  26%  40%  39°F  46°F  29.82"
Fri 02:00 PM  78.9°F  72°F  15 mph NW  10 mph  22 mph  0.00"  25%  39%  39°F  45°F  29.84"
Fri 01:00 PM  78.8°F  72°F  12 mph NW  10 mph  21 mph  0.00"  27%  39%  41°F  45°F  29.85"
Fri 12:00 PM  78.1°F  71°F  13 mph NW  9 mph  18 mph  0.00"  29%  40%  43°F  44°F  29.85"
Fri 11:00 AM  76.0°F  69°F  11 mph NW  8 mph  17 mph  0.00"  36%  41%  46°F  44°F  29.87"
Fri 10:00 AM  75.1°F  67°F  10 mph NW  8 mph  16 mph  0.00"  36%  45%  45°F  44°F  29.86"
Fri 09:29 AM  74.0°F  66°F  12 mph NW  8 mph  17 mph  0.00"  38%  48%  46°F  45°F  29.86"

  1. Current weather data. No green row appears if the current weather data is also the high or low for the current day.
  2. High temperature for the current day.
  3. Low temperature for the current day.

The Anza, California weather pages are a service of WeatherCurrents. The Anza Valley is southwestern Riverside County, east of Temecula and Aguanga, south of Mount San Jacinto and west of Mount Santa Rosa.
Copyright ©2024  WeatherCurrents. All rights reserved. - Submit questions and comments - Privacy Policy

This page automatically refreshes every 10 minutes.